createdAt,value
2018-05-16T00:01:13.076Z,8.00
2018-05-16T00:03:41.545Z,8.40
2018-05-16T00:06:10.048Z,8.70
2018-05-16T00:08:38.569Z,7.83
2018-05-16T00:11:07.065Z,8.07
2018-05-16T00:13:35.582Z,8.17
2018-05-16T00:16:04.093Z,7.97
2018-05-16T00:18:32.579Z,7.97
2018-05-16T00:21:01.089Z,8.03
2018-05-16T00:23:29.560Z,8.17
2018-05-16T00:25:58.078Z,9.47
2018-05-16T00:28:26.566Z,7.73
2018-05-16T00:30:55.085Z,7.57
2018-05-16T00:33:23.564Z,7.60
2018-05-16T00:35:52.037Z,7.10
2018-05-16T00:38:20.544Z,7.90
2018-05-16T00:40:49.017Z,7.73
2018-05-16T00:43:17.517Z,7.60
2018-05-16T00:45:46.016Z,7.47
2018-05-16T00:48:14.496Z,6.97
2018-05-16T00:50:54.697Z,7.03
2018-05-16T00:53:23.216Z,8.73
2018-05-16T00:55:51.688Z,8.40
2018-05-16T00:58:20.195Z,8.20
2018-05-16T01:00:48.728Z,8.17
2018-05-16T01:03:17.262Z,7.90
2018-05-16T01:05:45.734Z,6.87
2018-05-16T01:08:14.242Z,7.30
2018-05-16T01:10:42.756Z,7.57
2018-05-16T01:13:11.244Z,8.17
2018-05-16T01:15:39.760Z,8.27
2018-05-16T01:18:08.276Z,8.63
2018-05-16T01:20:36.884Z,8.10
2018-05-16T01:23:05.416Z,8.17
2018-05-16T01:25:33.948Z,8.60
2018-05-16T01:28:02.448Z,8.00
2018-05-16T01:30:30.961Z,8.27
2018-05-16T01:32:59.440Z,8.37
2018-05-16T01:35:27.944Z,7.40
2018-05-16T01:37:56.452Z,7.53
2018-05-16T01:40:24.973Z,8.50
2018-05-16T01:42:53.532Z,7.60
2018-05-16T01:45:21.997Z,6.87
2018-05-16T01:47:50.517Z,7.73
2018-05-16T01:50:19.015Z,7.30
2018-05-16T01:52:47.495Z,7.17
2018-05-16T01:55:15.997Z,8.20
2018-05-16T01:57:44.505Z,7.73
2018-05-16T02:00:13.013Z,7.63
2018-05-16T02:02:41.542Z,7.90
2018-05-16T02:05:10.058Z,7.43
2018-05-16T02:07:38.538Z,7.47
2018-05-16T02:10:07.048Z,12.37
2018-05-16T02:12:35.536Z,7.40
2018-05-16T02:15:04.159Z,7.03
2018-05-16T02:17:32.637Z,7.83
2018-05-16T02:20:01.130Z,7.37
2018-05-16T02:22:29.661Z,6.83
2018-05-16T02:24:58.137Z,7.37
2018-05-16T02:27:26.616Z,7.53
2018-05-16T02:29:55.188Z,7.47
2018-05-16T02:32:23.715Z,7.00
2018-05-16T02:34:52.235Z,7.27
2018-05-16T02:37:20.815Z,7.07
2018-05-16T02:39:49.273Z,8.17
2018-05-16T02:42:17.765Z,6.93
2018-05-16T02:44:46.381Z,6.90
2018-05-16T02:47:14.817Z,7.13
2018-05-16T02:49:43.340Z,8.47
2018-05-16T02:52:11.817Z,11.57
2018-05-16T02:54:40.333Z,7.27
2018-05-16T02:57:08.833Z,7.47
2018-05-16T02:59:37.401Z,9.60
2018-05-16T03:02:05.882Z,9.57
2018-05-16T03:04:34.337Z,7.03
2018-05-16T03:07:02.860Z,6.83
2018-05-16T03:09:31.332Z,6.57
2018-05-16T03:11:59.845Z,6.83
2018-05-16T03:14:28.339Z,8.23
2018-05-16T03:16:56.856Z,7.93
2018-05-16T03:19:25.374Z,6.80
2018-05-16T03:21:53.896Z,8.83
2018-05-16T03:24:22.413Z,7.50
2018-05-16T03:26:50.929Z,7.40
2018-05-16T03:29:19.405Z,7.87
2018-05-16T03:31:47.900Z,9.60
2018-05-16T03:34:16.412Z,9.30
2018-05-16T03:36:44.911Z,8.23
2018-05-16T03:39:13.443Z,7.90
2018-05-16T03:41:41.933Z,11.13
2018-05-16T03:44:10.457Z,9.63
2018-05-16T03:46:38.940Z,9.70
2018-05-16T03:49:07.519Z,9.60
2018-05-16T03:51:35.992Z,8.07
2018-05-16T03:54:04.492Z,7.27
2018-05-16T03:56:33.016Z,7.33
2018-05-16T03:59:13.158Z,8.03
2018-05-16T04:01:53.181Z,7.43
2018-05-16T04:04:21.642Z,7.10
2018-05-16T04:06:50.164Z,6.67
2018-05-16T04:09:18.687Z,10.07
2018-05-16T04:11:47.206Z,9.90
2018-05-16T04:14:15.686Z,9.60
2018-05-16T04:16:44.213Z,8.77
2018-05-16T04:19:12.692Z,13.20
2018-05-16T04:21:41.250Z,13.70
2018-05-16T04:24:09.752Z,12.40
2018-05-16T04:26:38.276Z,13.63
2018-05-16T04:29:06.762Z,17.73
2018-05-16T04:31:35.276Z,13.93
2018-05-16T04:34:03.800Z,14.57
2018-05-16T04:36:32.292Z,14.63
2018-05-16T04:39:00.872Z,15.00
2018-05-16T04:41:29.397Z,11.87
2018-05-16T04:43:57.881Z,17.30
2018-05-16T04:46:26.369Z,9.27
2018-05-16T04:48:54.884Z,9.17
2018-05-16T04:51:23.390Z,9.63
2018-05-16T04:53:51.868Z,7.10
2018-05-16T04:56:20.384Z,7.57
2018-05-16T04:58:48.919Z,7.30
2018-05-16T05:01:17.441Z,7.03
2018-05-16T05:03:45.973Z,8.33
2018-05-16T05:06:15.146Z,7.40
2018-05-16T05:08:43.630Z,7.30
2018-05-16T05:11:12.153Z,7.63
2018-05-16T05:13:40.641Z,7.07
2018-05-16T05:16:09.179Z,7.13
2018-05-16T05:18:37.685Z,11.97
2018-05-16T05:21:06.197Z,7.37
2018-05-16T05:23:34.716Z,8.50
2018-05-16T05:26:03.208Z,7.53
2018-05-16T05:28:31.785Z,7.40
2018-05-16T05:31:00.278Z,7.30
2018-05-16T05:33:29.753Z,6.53
2018-05-16T05:35:58.240Z,6.80
2018-05-16T05:38:26.764Z,7.20
2018-05-16T05:40:55.277Z,9.10
2018-05-16T05:43:23.968Z,9.97
2018-05-16T05:45:52.409Z,10.23
2018-05-16T05:48:20.899Z,8.33
2018-05-16T05:50:49.455Z,8.83
2018-05-16T05:53:18.029Z,10.53
2018-05-16T05:55:46.570Z,9.00
2018-05-16T05:58:15.092Z,8.50
2018-05-16T06:00:43.591Z,8.87
2018-05-16T06:03:12.136Z,8.40
2018-05-16T06:05:40.709Z,8.67
2018-05-16T06:08:09.268Z,10.37
2018-05-16T06:10:37.774Z,7.73
2018-05-16T06:13:06.285Z,8.27
2018-05-16T06:15:34.771Z,7.90
2018-05-16T06:18:03.350Z,7.83
2018-05-16T06:20:31.825Z,6.23
2018-05-16T06:23:00.330Z,6.33
2018-05-16T06:25:28.856Z,7.10
2018-05-16T06:27:57.275Z,5.83
2018-05-16T06:30:25.716Z,5.60
2018-05-16T06:32:54.134Z,6.33
2018-05-16T06:35:22.860Z,6.20
2018-05-16T06:37:51.307Z,8.03
2018-05-16T06:40:19.692Z,6.50
2018-05-16T06:42:48.123Z,6.93
2018-05-16T06:45:16.547Z,6.40
2018-05-16T06:47:45.008Z,6.50
2018-05-16T06:50:13.519Z,5.97
2018-05-16T06:52:41.928Z,6.63
2018-05-16T06:55:10.372Z,7.97
2018-05-16T06:57:38.828Z,7.70
2018-05-16T07:00:07.244Z,7.03
2018-05-16T07:02:35.683Z,5.77
2018-05-16T07:05:04.185Z,7.57
2018-05-16T07:07:32.591Z,6.17
2018-05-16T07:10:01.070Z,9.27
2018-05-16T07:12:29.479Z,6.20
2018-05-16T07:14:57.942Z,11.30
2018-05-16T07:17:26.417Z,5.77
2018-05-16T07:19:55.180Z,6.17
2018-05-16T07:22:23.670Z,8.67
2018-05-16T07:24:52.109Z,6.97
2018-05-16T07:27:20.535Z,5.90
2018-05-16T07:29:48.962Z,6.70
2018-05-16T07:32:17.460Z,6.87
2018-05-16T07:34:45.916Z,7.50
2018-05-16T07:37:14.511Z,6.57
2018-05-16T07:39:42.963Z,7.40
2018-05-16T07:42:11.396Z,5.97
2018-05-16T07:44:39.867Z,8.47
2018-05-16T07:47:08.358Z,4.47
2018-05-16T07:49:36.768Z,8.07
2018-05-16T07:52:05.211Z,4.83
2018-05-16T07:54:33.672Z,7.17
2018-05-16T07:57:02.083Z,7.10
2018-05-16T07:59:30.624Z,7.10
2018-05-16T08:01:59.036Z,5.10
2018-05-16T08:04:27.491Z,6.10
2018-05-16T08:06:55.948Z,4.80
2018-05-16T08:09:24.354Z,5.07
2018-05-16T08:11:52.793Z,4.60
2018-05-16T08:14:21.200Z,5.57
2018-05-16T08:16:49.657Z,4.30
2018-05-16T08:19:18.046Z,4.60
2018-05-16T08:21:46.471Z,6.90
2018-05-16T08:24:14.946Z,5.80
2018-05-16T08:26:43.409Z,5.83
2018-05-16T08:29:11.868Z,3.73
2018-05-16T08:31:40.279Z,5.23
2018-05-16T08:34:08.692Z,5.70
2018-05-16T08:36:37.140Z,5.80
2018-05-16T08:39:05.632Z,6.40
2018-05-16T08:41:34.100Z,4.63
2018-05-16T08:44:02.532Z,5.10
2018-05-16T08:46:31.036Z,4.73
2018-05-16T08:48:59.475Z,4.33
2018-05-16T08:51:27.923Z,5.27
2018-05-16T08:53:56.371Z,4.87
2018-05-16T08:56:24.807Z,7.40
2018-05-16T08:58:53.248Z,5.63
2018-05-16T09:01:21.708Z,4.50
2018-05-16T09:03:50.163Z,4.07
2018-05-16T09:06:18.636Z,4.13
2018-05-16T09:08:47.141Z,4.10
2018-05-16T09:11:15.665Z,5.27
2018-05-16T09:13:44.120Z,4.10
2018-05-16T09:16:12.588Z,4.27
2018-05-16T09:18:41.019Z,5.00
2018-05-16T09:21:09.467Z,4.37
2018-05-16T09:23:37.917Z,4.53
2018-05-16T09:26:06.331Z,3.97
2018-05-16T09:28:34.777Z,4.10
2018-05-16T09:31:03.231Z,5.00
2018-05-16T09:33:31.677Z,4.13
2018-05-16T09:36:00.092Z,4.90
2018-05-16T09:38:28.536Z,6.00
2018-05-16T09:40:56.941Z,4.90
2018-05-16T09:43:25.444Z,4.40
2018-05-16T09:45:53.969Z,4.33
2018-05-16T09:48:22.518Z,6.97
2018-05-16T09:50:51.000Z,5.30
2018-05-16T09:53:19.663Z,5.43
2018-05-16T09:55:48.165Z,5.00
2018-05-16T09:58:16.640Z,5.53
2018-05-16T10:00:45.201Z,5.77
2018-05-16T10:03:13.676Z,5.33
2018-05-16T10:05:42.173Z,5.70
2018-05-16T10:08:10.645Z,5.23
2018-05-16T10:10:39.144Z,5.00
2018-05-16T10:13:07.558Z,5.43
2018-05-16T10:15:36.000Z,6.20
2018-05-16T10:18:04.429Z,5.60
2018-05-16T10:20:32.880Z,6.00
2018-05-16T10:23:01.324Z,5.03
2018-05-16T10:25:29.775Z,5.33
2018-05-16T10:27:58.195Z,5.37
2018-05-16T10:30:26.609Z,4.70
2018-05-16T10:32:55.073Z,4.90
2018-05-16T10:35:23.522Z,4.77
2018-05-16T10:37:51.927Z,5.20
2018-05-16T10:40:20.380Z,5.23
2018-05-16T10:42:48.847Z,4.93
2018-05-16T10:45:17.287Z,4.47
2018-05-16T10:47:45.683Z,4.30
2018-05-16T10:50:14.141Z,4.70
2018-05-16T10:52:42.547Z,5.33
2018-05-16T10:55:10.999Z,4.90
2018-05-16T10:57:39.404Z,4.93
2018-05-16T11:00:07.859Z,4.83
2018-05-16T11:02:36.265Z,5.13
2018-05-16T11:05:04.720Z,5.23
2018-05-16T11:07:33.153Z,4.93
2018-05-16T11:10:01.564Z,4.47
2018-05-16T11:12:29.981Z,5.43
2018-05-16T11:14:58.472Z,4.57
2018-05-16T11:17:26.895Z,4.83
2018-05-16T11:19:55.351Z,4.37
2018-05-16T11:22:23.850Z,5.10
2018-05-16T11:24:52.364Z,4.47
2018-05-16T11:27:21.760Z,4.77
2018-05-16T11:29:50.159Z,4.63
2018-05-16T11:32:18.596Z,5.23
2018-05-16T11:34:47.054Z,4.20
2018-05-16T11:37:15.590Z,18.27
2018-05-16T11:39:44.057Z,6.43
2018-05-16T11:42:12.564Z,4.57
2018-05-16T11:44:41.032Z,4.77
2018-05-16T11:47:09.657Z,4.47
2018-05-16T11:49:38.174Z,4.70
2018-05-16T11:52:06.640Z,4.40
2018-05-16T11:54:35.169Z,4.40
2018-05-16T11:57:03.748Z,4.70
2018-05-16T11:59:32.216Z,4.70
2018-05-16T12:02:00.744Z,4.30
2018-05-16T12:04:29.345Z,4.07
2018-05-16T12:06:57.959Z,4.17
2018-05-16T12:09:26.490Z,4.53
2018-05-16T12:11:54.961Z,4.57
2018-05-16T12:14:23.420Z,4.77
2018-05-16T12:16:51.988Z,3.97
2018-05-16T12:19:20.505Z,4.90
2018-05-16T12:21:49.038Z,3.80
2018-05-16T12:24:17.485Z,4.40
2018-05-16T12:26:45.989Z,4.57
2018-05-16T12:29:14.517Z,4.73
2018-05-16T12:31:43.074Z,4.20
2018-05-16T12:34:11.597Z,4.43
2018-05-16T12:36:40.195Z,4.43
2018-05-16T12:39:08.629Z,4.27
2018-05-16T12:41:37.171Z,4.17
2018-05-16T12:44:05.719Z,4.53
2018-05-16T12:46:34.205Z,4.40
2018-05-16T12:49:02.740Z,4.10
2018-05-16T12:51:31.239Z,4.53
2018-05-16T12:53:59.758Z,3.47
2018-05-16T12:56:28.227Z,4.03
2018-05-16T12:58:56.737Z,4.53
2018-05-16T13:01:25.263Z,6.27
2018-05-16T13:03:54.843Z,4.47
2018-05-16T13:06:23.335Z,4.20
2018-05-16T13:08:51.813Z,4.23
2018-05-16T13:11:20.321Z,4.03
2018-05-16T13:13:49.493Z,4.00
2018-05-16T13:16:17.982Z,4.60
2018-05-16T13:18:46.473Z,4.20
2018-05-16T13:21:14.980Z,4.73
2018-05-16T13:23:43.469Z,4.63
2018-05-16T13:26:11.992Z,5.70
2018-05-16T13:28:40.692Z,4.43
2018-05-16T13:31:09.348Z,3.93
2018-05-16T13:33:37.878Z,4.30
2018-05-16T13:36:06.388Z,4.17
2018-05-16T13:38:34.904Z,4.30
2018-05-16T13:41:03.443Z,3.77
2018-05-16T13:43:31.964Z,3.70
2018-05-16T13:46:00.446Z,3.60
2018-05-16T13:48:28.972Z,3.40
2018-05-16T13:50:57.497Z,4.80
2018-05-16T13:53:26.078Z,9.70
2018-05-16T13:55:54.512Z,3.90
2018-05-16T13:58:22.985Z,8.73
2018-05-16T14:00:51.728Z,3.60
2018-05-16T14:03:20.249Z,4.50
2018-05-16T14:05:48.724Z,13.47
2018-05-16T14:08:17.253Z,9.80
2018-05-16T14:10:45.764Z,5.80
2018-05-16T14:13:14.376Z,8.77
2018-05-16T14:15:42.956Z,3.93
2018-05-16T14:18:11.480Z,10.07
2018-05-16T14:20:40.173Z,5.37
2018-05-16T14:23:08.686Z,3.97
2018-05-16T14:25:37.203Z,3.40
2018-05-16T14:28:05.732Z,3.73
2018-05-16T14:30:34.209Z,4.13
2018-05-16T14:33:02.661Z,4.27
2018-05-16T14:35:31.174Z,3.60
2018-05-16T14:37:59.713Z,3.60
2018-05-16T14:40:28.260Z,20.40
2018-05-16T14:42:56.833Z,26.67
2018-05-16T14:45:25.292Z,4.50
2018-05-16T14:47:53.805Z,3.80
2018-05-16T14:50:22.346Z,3.67
2018-05-16T14:52:50.876Z,3.57
2018-05-16T14:55:19.355Z,3.77
2018-05-16T14:57:47.880Z,3.77
2018-05-16T15:00:16.364Z,3.60
2018-05-16T15:02:44.888Z,3.70
2018-05-16T15:05:13.364Z,3.50
2018-05-16T15:07:41.932Z,3.80
2018-05-16T15:10:10.430Z,4.37
2018-05-16T15:12:38.927Z,3.27
2018-05-16T15:15:07.435Z,3.73
2018-05-16T15:17:35.909Z,3.20
2018-05-16T15:20:04.444Z,3.40
2018-05-16T15:22:32.942Z,3.83
2018-05-16T15:25:01.481Z,3.93
2018-05-16T15:27:30.144Z,3.60
2018-05-16T15:29:58.621Z,3.90
2018-05-16T15:32:27.093Z,3.27
2018-05-16T15:34:55.611Z,3.40
2018-05-16T15:37:24.186Z,3.40
2018-05-16T15:39:52.712Z,4.13
2018-05-16T15:42:21.210Z,3.60
2018-05-16T15:44:49.717Z,3.90
2018-05-16T15:47:18.232Z,3.80
2018-05-16T15:49:46.795Z,3.60
2018-05-16T15:52:15.288Z,3.53
2018-05-16T15:54:43.808Z,3.63
2018-05-16T15:57:12.325Z,3.60
2018-05-16T15:59:40.852Z,4.30
2018-05-16T16:02:09.384Z,4.80
2018-05-16T16:04:37.905Z,4.20
2018-05-16T16:07:06.412Z,5.03
2018-05-16T16:09:35.617Z,5.20
2018-05-16T16:12:05.026Z,5.30
2018-05-16T16:14:33.557Z,5.07
2018-05-16T16:17:02.067Z,4.43
2018-05-16T16:19:30.543Z,4.60
2018-05-16T16:21:59.065Z,4.30
2018-05-16T16:24:27.555Z,4.10
2018-05-16T16:26:56.071Z,4.60
2018-05-16T16:29:24.589Z,5.07
2018-05-16T16:31:53.101Z,4.53
2018-05-16T16:34:21.620Z,4.20
2018-05-16T16:36:50.108Z,3.80
2018-05-16T16:39:18.620Z,3.77
2018-05-16T16:41:47.101Z,3.80
2018-05-16T16:44:15.608Z,3.77
2018-05-16T16:46:44.202Z,3.27
2018-05-16T16:49:12.757Z,4.00
2018-05-16T16:51:41.277Z,3.90
2018-05-16T16:54:09.816Z,3.93
2018-05-16T16:56:38.300Z,3.73
2018-05-16T16:59:06.805Z,3.70
2018-05-16T17:01:35.327Z,3.90
2018-05-16T17:04:03.840Z,4.00
2018-05-16T17:06:32.359Z,3.53
2018-05-16T17:09:00.923Z,3.80
2018-05-16T17:11:29.424Z,4.03
2018-05-16T17:13:57.957Z,4.43
2018-05-16T17:16:26.447Z,3.87
2018-05-16T17:18:54.901Z,3.97
2018-05-16T17:21:23.492Z,3.77
2018-05-16T17:23:51.973Z,3.47
2018-05-16T17:26:20.456Z,3.77
2018-05-16T17:28:49.632Z,3.80
2018-05-16T17:31:18.161Z,3.63
2018-05-16T17:33:46.641Z,3.70
2018-05-16T17:36:15.155Z,3.40
2018-05-16T17:38:43.643Z,3.70
2018-05-16T17:41:12.184Z,3.20
2018-05-16T17:43:40.701Z,3.70
2018-05-16T17:46:09.265Z,3.90
2018-05-16T17:48:37.745Z,3.60
2018-05-16T17:51:06.221Z,3.50
2018-05-16T17:53:34.737Z,4.23
2018-05-16T17:56:03.301Z,3.63
2018-05-16T17:58:31.821Z,3.53
2018-05-16T18:01:00.430Z,3.50
2018-05-16T18:03:28.853Z,3.80
2018-05-16T18:05:57.364Z,3.63
2018-05-16T18:08:25.828Z,4.03
2018-05-16T18:10:54.336Z,3.90
2018-05-16T18:16:42.137Z,4.10
2018-05-16T18:19:10.716Z,3.90
2018-05-16T18:21:39.232Z,5.53
2018-05-16T18:24:07.725Z,4.50
2018-05-16T18:26:36.245Z,5.17
2018-05-16T18:29:04.760Z,4.53
2018-05-16T18:31:33.234Z,5.30
2018-05-16T18:34:01.706Z,4.90
2018-05-16T18:36:30.208Z,4.50
2018-05-16T18:38:58.664Z,4.33
2018-05-16T18:41:27.177Z,4.57
2018-05-16T18:43:55.725Z,4.70
2018-05-16T18:46:24.193Z,4.83
2018-05-16T18:48:52.702Z,5.27
2018-05-16T18:51:21.192Z,5.60
2018-05-16T18:53:49.713Z,5.50
2018-05-16T18:56:18.202Z,5.30
2018-05-16T18:58:46.705Z,5.77
2018-05-16T19:01:15.234Z,6.10
2018-05-16T19:03:43.748Z,5.43
2018-05-16T19:06:12.270Z,5.47
2018-05-16T19:08:40.844Z,4.80
2018-05-16T19:11:09.283Z,5.63
2018-05-16T19:13:37.783Z,5.43
2018-05-16T19:16:06.279Z,5.13
2018-05-16T19:18:34.779Z,5.43
2018-05-16T19:21:03.303Z,4.70
2018-05-16T19:23:31.832Z,4.80
2018-05-16T19:26:00.353Z,4.33
2018-05-16T19:28:28.821Z,4.80
2018-05-16T19:30:57.324Z,4.30
2018-05-16T19:33:25.817Z,4.60
2018-05-16T19:35:54.348Z,4.90
2018-05-16T19:38:22.909Z,4.60
2018-05-16T19:40:51.412Z,4.70
2018-05-16T19:43:19.914Z,4.77
2018-05-16T19:45:48.412Z,4.70
2018-05-16T19:48:16.901Z,4.30
2018-05-16T19:50:45.420Z,4.37
2018-05-16T19:53:13.937Z,4.40
2018-05-16T19:55:42.406Z,4.47
2018-05-16T19:58:10.879Z,4.00
2018-05-16T20:00:39.391Z,4.40
2018-05-16T20:03:07.905Z,3.60
2018-05-16T20:05:36.368Z,4.23
2018-05-16T20:08:04.975Z,4.03
2018-05-16T20:10:33.476Z,4.10
2018-05-16T20:13:01.996Z,3.90
2018-05-16T20:15:30.560Z,3.80
2018-05-16T20:17:59.038Z,4.30
2018-05-16T20:20:27.548Z,3.70
2018-05-16T20:22:56.017Z,3.50
2018-05-16T20:25:24.527Z,4.20
2018-05-16T20:27:53.016Z,4.17
2018-05-16T20:30:21.517Z,3.80
2018-05-16T20:32:50.032Z,3.77
2018-05-16T20:35:18.551Z,3.63
2018-05-16T20:37:47.020Z,4.00
2018-05-16T20:40:15.534Z,3.70
2018-05-16T20:42:44.031Z,4.13
2018-05-16T20:45:12.639Z,4.17
2018-05-16T20:47:41.065Z,4.17
2018-05-16T20:50:09.541Z,3.90
2018-05-16T20:52:38.049Z,3.80
2018-05-16T20:55:06.515Z,3.90
2018-05-16T20:57:35.028Z,3.93
2018-05-16T21:00:03.609Z,3.80
2018-05-16T21:02:32.137Z,4.23
2018-05-16T21:05:00.612Z,4.47
2018-05-16T21:07:29.099Z,4.97
2018-05-16T21:09:57.605Z,6.43
2018-05-16T21:12:26.104Z,5.10
2018-05-16T21:14:54.609Z,4.63
2018-05-16T21:17:23.120Z,6.27
2018-05-16T21:19:51.634Z,5.10
2018-05-16T21:22:20.120Z,4.60
2018-05-16T21:24:48.625Z,5.00
2018-05-16T21:27:17.102Z,5.00
2018-05-16T21:29:45.605Z,4.53
2018-05-16T21:32:14.109Z,4.97
2018-05-16T21:34:42.621Z,5.20
2018-05-16T21:37:11.110Z,4.57
2018-05-16T21:39:39.618Z,5.17
2018-05-16T21:42:08.084Z,5.00
2018-05-16T21:44:36.611Z,5.17
2018-05-16T21:47:05.130Z,5.83
2018-05-16T21:49:33.593Z,5.90
2018-05-16T21:52:02.104Z,5.50
2018-05-16T21:54:30.573Z,6.00
2018-05-16T21:56:59.048Z,5.60
2018-05-16T21:59:27.557Z,6.47
2018-05-16T22:01:56.036Z,6.20
2018-05-16T22:04:24.584Z,6.43
2018-05-16T22:06:53.007Z,6.93
2018-05-16T22:09:21.461Z,6.50
2018-05-16T22:11:49.887Z,6.83
2018-05-16T22:14:18.312Z,8.33
2018-05-16T22:16:46.723Z,6.60
2018-05-16T22:19:15.204Z,6.80
2018-05-16T22:21:43.621Z,7.57
2018-05-16T22:24:12.036Z,6.53
2018-05-16T22:26:40.492Z,6.67
2018-05-16T22:29:08.902Z,6.10
2018-05-16T22:31:42.871Z,6.80
2018-05-16T22:34:16.768Z,6.10
2018-05-16T22:36:50.722Z,6.33
2018-05-16T22:39:24.782Z,6.83
2018-05-16T22:41:58.611Z,6.00
2018-05-16T22:44:33.520Z,5.97
2018-05-16T22:47:02.011Z,5.87
2018-05-16T22:49:30.468Z,5.70
2018-05-16T22:51:58.885Z,5.63
2018-05-16T22:54:27.414Z,5.43
2018-05-16T22:56:55.827Z,6.00
2018-05-16T22:59:24.297Z,5.87
2018-05-16T23:01:52.735Z,6.03
2018-05-16T23:04:21.140Z,5.90
2018-05-16T23:06:49.592Z,6.20
2018-05-16T23:09:17.995Z,5.90
2018-05-16T23:11:46.439Z,5.63
2018-05-16T23:14:14.950Z,5.90
2018-05-16T23:16:43.453Z,6.27
2018-05-16T23:19:11.925Z,6.00
2018-05-16T23:21:40.464Z,6.03
2018-05-16T23:24:08.943Z,6.40
2018-05-16T23:26:37.460Z,5.80
2018-05-16T23:29:05.967Z,6.10
2018-05-16T23:31:34.468Z,5.67
2018-05-16T23:34:02.945Z,4.87
2018-05-16T23:36:31.453Z,6.50
2018-05-16T23:38:59.932Z,7.10
2018-05-16T23:41:28.435Z,6.90
2018-05-16T23:43:56.914Z,6.93
2018-05-16T23:46:25.443Z,6.40
2018-05-16T23:48:53.912Z,7.27
2018-05-16T23:51:22.388Z,6.80
2018-05-16T23:53:50.900Z,6.83
2018-05-16T23:56:19.372Z,6.30
2018-05-16T23:58:47.896Z,6.70
